Terminal Aerodrome Forecast
Issued by NWS

Home | Current Version | Previous Version | Text Only | Print | Product List | Glossary Off
Versions: 1 2 3 4 5 6 7 8 9 10 11 12 13 14 15 16 17 18

000
FTUS41 KCLE 311700
TAFFDY
TAF
KFDY 311737Z 3118/0118 33012KT 6SM -SHRA BR OVC015
     FM312100 34018G32KT 3SM -SHRA OVC008
     FM010300 35015G25KT 6SM -RASN BKN007 OVC010
     FM011000 34015G25KT 6SM -RASN OVC015
     FM011500 36015G25KT 6SM -RASN OVC018=

USA.gov is the U.S. government's official web portal to all federal, state and local government web resources and services.